Pasadena 2N

39° 08' 31"N, 76° 30' 27"W, Elevation 43 ft.
Eastern Time

Hourly observations for the last 72 hours

Date Time Temperature (°F) Humi-
dity

(%)
Wind
(mph)
Pressure Rain (in) Sun
(W/m2)
ET
(in)
Air Dew 6 Hour 1 Hr 3 Hr 6 Hr Day
Alt
(in)
Sea
Level

(mb)
Max Min
8 10:00 37.1 30.9 78 SE 2 G 5 30.52 1033.4 0.00 93 0.001
8 09:00 27.6 25.3 91 Calm 30.52 1033.4 0.00 67 0.000
8 08:00 23.4 20.9 90 Calm 30.51 1033.3 0.00 19 0.000
8 07:00 23.4 20.9 25.1 23.4 90 Calm 30.51 1033.1 0.00 0 0.000
8 06:00 23.8 21.0 89 Calm 30.50 1032.8 0.00 0 0.000
8 05:00 24.2 21.2 88 Calm 30.50 1032.8 0.00 0 0.000
8 04:00 24.4 21.4 88 NW 0 G 1 30.50 1032.8 0.00 0 0.000
8 03:00 23.9 20.6 87 Calm 30.50 1032.7 0.00 0 0.000
8 02:00 24.4 20.8 86 Calm 30.49 1032.6 0.00 0 0.000
8 01:00 25.0 21.1 30.2 25.0 85 Calm 30.49 1032.4 0.00 0 0.000
8 00:00 25.5 21.3 84 Calm 30.49 1032.4 0.00 0 0.034
7 23:00 26.3 21.6 82 Calm 30.48 1032.1 0.00 0 0.034
7 22:00 27.2 21.9 80 Calm 30.47 1031.8 0.00 0 0.034
7 21:00 28.2 21.9 77 Calm 30.46 1031.7 0.00 0 0.034
7 20:00 29.1 22.2 75 Calm 30.46 1031.4 0.00 0 0.034
7 19:00 30.1 22.5 43.5 30.1 73 Calm 30.44 1030.9 0.00 0 0.033
7 18:00 32.4 22.7 67 Calm 30.43 1030.5 0.00 0 0.032
7 17:00 37.5 24.1 58 NW 0 G 2 30.42 1030.0 0.00 0 0.032
7 16:00 40.3 24.1 52 WNW 0 G 3 30.40 1029.5 0.00 14 0.031
7 15:00 41.0 25.2 53 NW 0 G 9 30.39 1029.1 0.00 28 0.030
7 14:00 42.0 25.2 51 N 1 G 8 30.38 1028.9 0.00 230 0.024
7 13:00 42.7 26.3 43.5 28.0 52 NNW 1 G 10 30.38 1028.8 0.00 454 0.017
7 12:00 41.4 25.6 53 NW 3 G 9 30.40 1029.5 0.00 292 0.013
7 11:00 40.2 24.9 54 NW 1 G 9 30.41 1029.8 0.00 127 0.010
7 10:00 39.9 25.9 57 NNW 1 G 10 30.40 1029.6 0.00 120 0.008
7 09:00 35.8 26.3 68 ENE 1 G 6 30.39 1029.2 0.00 49 0.007
7 08:00 28.3 22.3 78 Calm 30.38 1028.7 0.00 28 0.007
7 07:00 30.1 21.8 43.4 30.1 71 Calm 30.36 1028.1 0.00 0 0.007
7 06:00 34.6 23.3 63 WNW 1 G 4 30.33 1027.2 0.00 0 0.006
7 05:00 36.6 24.8 62 NW 1 G 4 30.31 1026.3 0.00 0 0.005
7 04:00 36.9 25.9 64 W 0 G 4 30.28 1025.5 0.00 0 0.004
7 03:00 38.9 26.6 61 WNW 2 G 6 30.26 1024.8 0.00 0 0.003
7 02:00 40.7 26.7 57 NW 1 G 8 30.23 1023.6 0.00 0 0.002
7 01:00 43.3 28.7 50.2 43.3 56 NW 3 G 15 30.20 1022.8 0.00 0 0.000
7 00:00 45.7 31.8 58 NW 4 G 12 30.18 1022.1 0.00 0 0.036
6 23:00 47.3 36.9 67 NW 3 G 13 30.15 1021.1 0.00 0 0.035
6 22:00 43.4 35.0 72 W 0 G 4 30.12 1019.9 0.00 0 0.034
6 21:00 47.0 35.9 65 W 2 G 6 30.09 1019.1 0.00 0 0.033
6 20:00 49.1 35.0 58 WNW 1 G 4 30.08 1018.8 0.00 0 0.032
6 19:00 50.2 34.2 56.4 49.5 54 WSW 1 G 8 30.05 1017.7 0.00 0 0.031
6 18:00 50.1 33.2 52 SW 0 G 4 30.03 1016.9 0.00 0 0.029
6 17:00 51.9 32.8 48 S 2 G 9 30.01 1016.2 0.00 0 0.028
6 16:00 53.7 32.3 44 SSW 2 G 9 30.01 1016.2 0.00 18 0.027
6 15:00 55.4 34.4 45 SSE 2 G 8 29.99 1015.7 0.00 65 0.024
6 14:00 56.1 32.7 41 SW 3 G 12 30.00 1015.8 0.00 169 0.019
6 13:00 54.3 34.0 54.4 28.0 46 S 3 G 14 30.02 1016.5 0.00 236 0.012
6 12:00 52.1 34.0 50 S 4 G 13 30.04 1017.4 0.00 278 0.006
6 11:00 48.8 36.0 61 S 3 G 10 30.09 1019.1 0.00 120 0.003
6 10:00 45.0 35.4 69 SSW 4 G 9 30.13 1020.5 0.00 141 0.001
6 09:00 41.1 33.5 74 SSE 1 G 9 30.14 1020.6 0.00 90 0.000
6 08:00 28.5 25.1 87 S 0 G 1 30.15 1021.0 0.00 23 0.000
6 07:00 28.7 24.8 32.5 28.7 85 Calm 30.15 1021.1 0.00 0 0.000
6 06:00 29.6 25.4 84 SSE 0 G 4 30.15 1021.1 0.00 0 0.000
6 05:00 29.0 25.3 86 W 0 G 1 30.16 1021.4 0.00 0 0.000
6 04:00 29.7 25.7 85 W 0 G 2 30.16 1021.2 0.00 0 0.000
6 03:00 32.0 27.4 83 Calm 30.17 1021.5 0.00 0 0.000
6 02:00 32.0 27.1 82 Calm 30.17 1021.6 0.00 0 0.000
6 01:00 31.3 25.9 39.1 30.3 80 Calm 30.17 1021.8 0.00 0 0.000
6 00:00 30.6 25.2 80 Calm 30.17 1021.5 0.00 0 0.040
5 23:00 30.5 24.8 79 Calm 30.15 1021.1 0.00 0 0.040
5 22:00 30.6 23.9 76 Calm 30.14 1020.8 0.00 0 0.040
5 21:00 32.3 23.6 70 Calm 30.13 1020.3 0.00 0 0.039
5 20:00 35.8 24.4 63 W 1 G 3 30.12 1020.0 0.00 0 0.038
5 19:00 39.1 26.0 46.4 39.1 59 W 1 G 6 30.09 1018.9 0.00 0 0.037
5 18:00 41.5 25.6 53 WNW 4 G 18 30.06 1018.1 0.00 0 0.036
5 17:00 42.5 26.1 52 W 1 G 3 30.02 1016.8 0.00 0 0.035
5 16:00 44.8 26.8 49 W 3 G 13 30.00 1015.9 0.00 28 0.033
5 15:00 45.3 26.8 48 WSW 5 G 14 29.96 1014.7 0.00 35 0.030
5 14:00 45.6 27.0 48 W 8 G 19 29.94 1014.0 0.00 334 0.024
5 13:00 46.1 28.5 46.1 39.2 50 W 2 G 10 29.92 1013.4 0.00 540 0.018
5 12:00 43.4 27.9 54 WNW 7 G 19 29.92 1013.4 0.00 111 0.014
5 11:00 43.5 28.0 54 W 5 G 14 29.93 1013.7 0.00 142 0.011

Data generated by WxSolution Version 1.9.1.6, Build 2018.07.01.